Flight Track Log - Related Links

Times and Time Zones

All times are in EST time to prevent confusion due to time zone crossing. See the BOE1 flight status page for this flight to view local times or setup timezone preferences in your user account.

Time Position Orientation Groundspeed Altitude Reporting Facility
EST Latitude Longitude Course Direction KTS MPH feet Rate Location/Type
Fri 02:30:46 PM 47.5539 -122.3270 320° Northwest 184 212 1,500  Level Seattle Center
Fri 02:32:17 PM 47.6289 -122.4200 320° Northwest 239 275 4,600 2,385 Climbing Seattle Center
Fri 02:33:22 PM 47.6794 -122.4840 24° Northeast 256 295 7,700 3,168 Climbing Seattle Center
Fri 02:34:22 PM 47.7406 -122.4440 33° Northeast 211 243 11,200 3,200 Climbing Seattle Center
Fri 02:35:22 PM 47.7981 -122.3880 32° Northeast 213 245 14,100 2,700 Climbing Seattle Center
Fri 02:36:22 PM 47.8553 -122.3350 30° Northeast 226 260 16,600 2,100 Climbing Seattle Center
Fri 02:37:22 PM 47.9211 -122.2790 20° North 247 284 18,300 2,000 Climbing Seattle Center
Fri 02:38:22 PM 47.9989 -122.2370 21° North 272 313 20,600 1,850 Climbing Seattle Center
Fri 02:39:22 PM 48.0747 -122.1940 50° Northeast 283 326 22,000 700 Climbing Seattle Center
Fri 02:40:22 PM 48.1264 -122.1030 93° East 283 326 22,000 -50 Level Seattle Center
Fri 02:41:22 PM 48.1208 -121.9530 93° East 270 311 21,900  Descending Seattle Center
Fri 02:42:22 PM 48.1136 -121.7790 96° East 350 403 22,000 50 Climbing Seattle Center
Fri 02:43:22 PM 48.1000 -121.5860 93° East 413 475 22,000 50 Level Seattle Center
Fri 02:44:22 PM 48.0925 -121.3960 78° East 440 506 22,100  Climbing Seattle Center
Fri 02:45:22 PM 48.1175 -121.2230 101° East 434 499 22,000 -100 Descending Seattle Center
Fri 02:46:22 PM 48.0925 -121.0400 100° East 434 499 21,900  Descending Seattle Center
Fri 02:47:22 PM 48.0714 -120.8530 102° East 448 516 22,000 50 Climbing Seattle Center
Fri 02:48:22 PM 48.0458 -120.6660 99° East 453 521 22,000  Level Seattle Center
Fri 02:49:22 PM 48.0264 -120.4800 96° East 453 521 22,000 50 Level Seattle Center
Fri 02:50:22 PM 48.0128 -120.2910 95° East 453 521 22,100 150 Climbing Seattle Center
Fri 02:51:22 PM 48.0008 -120.1050 95° East 453 521 22,300 50 Climbing Seattle Center
Fri 02:52:22 PM 47.9908 -119.9190 93° East 453 521 22,200 -200 Descending Seattle Center
Fri 02:53:22 PM 47.9847 -119.7330 96° East 448 516 21,900 -150 Descending Seattle Center
Fri 02:54:22 PM 47.9719 -119.5470 96° East 448 516 21,900 50 Level Seattle Center
Fri 02:55:22 PM 47.9592 -119.3620 98° East 443 510 22,000  Climbing Seattle Center
Fri 02:56:22 PM 47.9417 -119.1790 100° East 443 510 21,900 -50 Descending Seattle Center
Fri 02:57:22 PM 47.9197 -118.9910 98° East 448 516 21,900  Level Seattle Center
Fri 02:58:22 PM 47.9017 -118.8050 95° East 448 516 21,900 -100 Level Seattle Center
Fri 02:59:22 PM 47.8917 -118.6200 95° East 448 516 21,700 -150 Descending Seattle Center
Fri 03:00:22 PM 47.8814 -118.4380 93° East 443 510 21,600 -100 Descending Seattle Center
Fri 03:01:22 PM 47.8750 -118.2490 94° East 443 510 21,500 200 Descending Seattle Center
Fri 03:02:22 PM 47.8661 -118.0670 93° East 443 510 22,000 227 Climbing Seattle Center
Fri 03:03:34 PM 47.8594 -117.9010 94° East 428 493 22,000 227 Level Seattle Center
Fri 03:04:34 PM 47.8503 -117.7250 91° East 382 440 22,500 1,650 Climbing Seattle Center
Fri 03:05:34 PM 47.8481 -117.5950 94° East 343 395 25,300 2,450 Climbing Seattle Center
Fri 03:06:34 PM 47.8414 -117.4630 94° East 324 373 27,400 1,800 Climbing Seattle Center
Fri 03:07:34 PM 47.8344 -117.3270 93° East 319 367 28,900 1,300 Climbing Seattle Center
Fri 03:08:34 PM 47.8294 -117.1910 97° East 319 367 30,000 550 Climbing Seattle Center
Fri 03:09:34 PM 47.8178 -117.0440 95° East 329 379 30,000  Level Seattle Center
Fri 03:10:34 PM 47.8103 -116.9080 96° East 329 379 30,000 -100 Level Seattle Center
Fri 03:11:34 PM 47.8008 -116.7730 97° East 329 379 29,800 -50 Descending Seattle Center
Fri 03:12:34 PM 47.7889 -116.6340 96° East 329 379 29,900 50 Climbing Seattle Center
Fri 03:13:34 PM 47.7789 -116.4990 120° Southeast 329 379 29,900  Level Seattle Center
Fri 03:14:34 PM 47.7339 -116.3820 201° Southwest 329 379 29,900 -100 Level Seattle Center
Fri 03:15:34 PM 47.6233 -116.4440 278° West 278 320 29,700 50 Descending Seattle Center
Fri 03:16:34 PM 47.6381 -116.5970 305° West 218 251 30,000 200 Climbing Seattle Center
Fri 03:17:34 PM 47.6953 -116.7200 293° West 259 298 30,100 -100 Climbing Seattle Center
Fri 03:18:34 PM 47.7364 -116.8630 290° West 326 375 29,800 -300 Descending Seattle Center
Fri 03:19:34 PM 47.7736 -117.0180 290° West 381 438 29,500  Descending Seattle Center
Fri 03:20:34 PM 47.8056 -117.1490 282° West 388 447 29,800 250 Climbing Seattle Center
Fri 03:21:34 PM 47.8278 -117.3090 283° West 388 447 30,000 100 Climbing Seattle Center
Fri 03:22:34 PM 47.8519 -117.4680 277° West 393 452 30,000  Level Seattle Center
Fri 03:23:34 PM 47.8656 -117.6380 277° West 404 465 30,000  Level Seattle Center
Fri 03:24:34 PM 47.8789 -117.8070 278° West 410 472 30,000  Level Seattle Center
Fri 03:25:34 PM 47.8939 -117.9770 277° West 416 479 30,000  Level Seattle Center
Fri 03:26:34 PM 47.9069 -118.1460 277° West 416 479 30,000  Level Seattle Center
Fri 03:27:34 PM 47.9214 -118.3130 276° West 421 484 30,000  Level Seattle Center
Fri 03:28:34 PM 47.9339 -118.4830 277° West 421 484 30,000  Level Seattle Center
Fri 03:29:34 PM 47.9481 -118.6500 275° West 421 484 30,000  Level Seattle Center
Fri 03:30:34 PM 47.9581 -118.8170 276° West 421 484 30,000 50 Level Seattle Center
Fri 03:31:34 PM 47.9694 -118.9840 275° West 416 479 30,100 100 Climbing Seattle Center
Fri 03:32:34 PM 47.9789 -119.1510 276° West 416 479 30,200 -200 Climbing Seattle Center
Fri 03:33:34 PM 47.9900 -119.3180 272° West 410 472 29,700 -700 Descending Seattle Center
Fri 03:34:34 PM 47.9928 -119.4790 226° Southwest 403 464 28,800 -1,000 Descending Seattle Center
Fri 03:35:34 PM 47.9078 -119.6090 174° South 399 459 27,700 -1,150 Descending Seattle Center
Fri 03:36:34 PM 47.7892 -119.5910 165° South 352 405 26,500 -2,000 Descending Seattle Center
Fri 03:37:34 PM 47.6767 -119.5460 164° South 373 429 23,700 -2,850 Descending Seattle Center
Fri 03:38:34 PM 47.5725 -119.5030 163° South 378 435 20,800 -2,900 Descending Seattle Center
Fri 03:39:34 PM 47.4767 -119.4610 160° South 373 429 17,900 -2,500 Descending Seattle Center
Fri 03:40:34 PM 47.3914 -119.4150 162° South 353 406 15,800 -2,200 Descending Seattle Center
Fri 03:41:34 PM 47.3122 -119.3760 177° South 324 373 13,500 -2,400 Descending Seattle Center
Fri 03:42:34 PM 47.2392 -119.3700 192° South 287 330 11,000 -2,500 Descending Seattle Center
Fri 03:43:34 PM 47.1789 -119.3890 186° South 247 284 8,500 -3,000 Descending Seattle Center
Fri 03:44:04 PM 47.1414 -119.3950 150° Southeast 207 238 6,500 -2,900 Descending Seattle Center
Fri 03:44:34 PM 47.1206 -119.3770 100° East 233 268 5,600 -1,667 Descending Seattle Center
Fri 03:45:34 PM 47.1119 -119.3040 39° Northeast 160 184 4,000 -1,650 Descending Seattle Center
Fri 03:46:34 PM 47.1431 -119.2670 329° Northwest 92 106 2,300 -1,400 Descending Seattle Center
Fri 03:47:34 PM 47.1933 -119.3120 29° Northeast 82 94 1,200 1,350 Descending Seattle Center
Fri 03:48:34 PM 47.2119 -119.2970 16° North 82 94 5,000 1,900 Climbing Seattle Center
Fri 03:49:34 PM 47.2328 -119.2880 13° North 82 94 5,000  Level Seattle Center
Fri 03:50:34 PM 47.2533 -119.2810 18° North 82 94 5,000  Level Seattle Center
Fri 03:51:34 PM 47.2658 -119.2750 360° North 82 94 5,000  Level Seattle Center
Fri 03:52:34 PM 47.2658 -119.2750 360° North 82 94 5,000  Level Seattle Center
Fri 03:53:34 PM 47.2658 -119.2750 360° North 82 94 5,000  Level Seattle Center
Fri 03:54:34 PM 47.2658 -119.2750 360° North 82 94 5,000  Level Seattle Center
Fri 03:55:34 PM 47.2658 -119.2750 360° North 82 94 5,000  Level Seattle Center

Login

Don't have an account? Register now (free) for customized features, flight alerts, and more!